INGA4: Red River, Index, AR

                                SHEF ID:       INGA4     Red River at Index, AR
STATION TYPE: Stream Gauge
Regulating: Stage = 19.80, Flow = 104273

PRECIP STAGE RIV-FLOW WTR-TEMP BAT-LOAD
in ft cfs F volt
Ccp-Rev Ccp-Rev Ccp-Rev Ccp-Rev Ccp-Rev
(America/Chicago)
05/04 00:00 0.00 2.94 9908 72.46 12.70
05/04 01:00 0.00 2.91 9794 72.23 12.67
05/04 02:00 0.00 2.89 9718 72.01 12.67
05/04 03:00 0.00 2.86 9604 71.82 12.63
05/04 04:00 0.00 2.83 9491 71.62 12.63
05/04 05:00 0.00 2.81 9416 71.46 12.60
05/04 06:00 0.00 2.78 9304 71.28 12.58
05/04 07:00 0.00 2.75 9192 71.19 12.56
05/04 08:00 0.00 2.72 9080 71.11 12.68
05/04 09:00 0.00 2.70 9006 71.19 13.66
05/04 10:00 0.00 2.67 8894 71.28 13.65
05/04 11:00 0.00 2.64 8784 71.47 13.59
05/04 12:00 0.00 2.60 8637 71.80 13.55
05/04 13:00 0.00 2.58 8563 72.23 13.47
05/04 14:00 0.00 2.56 8490 72.73 13.45
05/04 15:00 0.00 2.54 8417 73.26 13.39
05/04 16:00 0.00 2.52 8345 73.67 13.32
05/04 17:00 0.00 2.49 8236 74.07 13.25
05/04 18:00 0.00 2.47 8164 74.35 13.19
05/04 19:00 0.00 2.46 8128 74.46 13.16
05/04 20:00 0.00 2.43 8020 74.43 13.11
05/04 21:00 0.00 2.41 7948 74.26 12.83
05/04 22:00 0.00 2.39 7876 74.17 12.71
05/04 23:00 0.00 2.37 7805 73.99 12.70
Data processed at Tue 05May2026 04:11 GMT

NOTICE: If you are parsing this page

Please convert to using our Data API. Starting early 2026 we will be migrating to: https://water.usace.army.mil with modern pages rendered in JavaScript. When this migration completes you will no longer be able to scrape this page! CWMSDataAPI (CDA)

Timeseries IDs (TSIDs)

TSIDs used from left to right in the data table
INDX.Precip-Inc.Total.1Hour.1Hour.Ccp-Rev
INDX.Stage.Inst.1Hour.0.Ccp-Rev
INDX.Flow.Inst.1Hour.0.Ccp-Rev
INDX.Temp-Water.Inst.1Hour.0.Ccp-Rev
INDX.Volt-Battery Load.Inst.1Hour.0.Ccp-Rev

                            

All information presented herein is the property of the government of the United States of America and may be revised or deleted at any time without prior notice. Dissemination of this information without the expressed written consent of the Public Affairs Office, Tulsa District U.S. Army Corps of Engineers is strictly prohibited. These data are gathered electronically and, as presented, have NOT undergone any form of quality control. These data are NOT guaranteed to be valid or correct.